sensor_id;sensor_type;location;lat;lon;timestamp;pressure;altitude;pressure_sealevel;temperature;humidity
25722;BME280;13578;53.450;15.496;2022-10-22T00:01:00;99258.59;;;10.21;100.00
25722;BME280;13578;53.450;15.496;2022-10-22T00:04:01;99239.13;;;10.24;100.00
25722;BME280;13578;53.450;15.496;2022-10-22T00:07:01;99242.97;;;10.41;100.00
25722;BME280;13578;53.450;15.496;2022-10-22T00:10:04;99243.72;;;10.33;100.00
25722;BME280;13578;53.450;15.496;2022-10-22T00:13:05;99247.50;;;10.23;100.00
25722;BME280;13578;53.450;15.496;2022-10-22T00:16:06;99241.97;;;10.32;100.00
25722;BME280;13578;53.450;15.496;2022-10-22T00:19:07;99237.97;;;10.27;100.00
25722;BME280;13578;53.450;15.496;2022-10-22T00:22:08;99244.16;;;10.29;100.00
25722;BME280;13578;53.450;15.496;2022-10-22T00:25:09;99249.81;;;10.27;100.00
25722;BME280;13578;53.450;15.496;2022-10-22T00:28:10;99258.59;;;10.31;100.00
25722;BME280;13578;53.450;15.496;2022-10-22T00:31:11;99260.19;;;10.33;100.00
25722;BME280;13578;53.450;15.496;2022-10-22T00:34:11;99259.28;;;10.43;100.00
25722;BME280;13578;53.450;15.496;2022-10-22T00:37:12;99268.56;;;10.42;100.00
25722;BME280;13578;53.450;15.496;2022-10-22T00:40:13;99265.09;;;10.40;100.00
25722;BME280;13578;53.450;15.496;2022-10-22T00:43:16;99259.59;;;10.40;100.00
25722;BME280;13578;53.450;15.496;2022-10-22T00:46:16;99253.22;;;10.39;100.00
25722;BME280;13578;53.450;15.496;2022-10-22T00:49:17;99255.25;;;10.47;100.00
25722;BME280;13578;53.450;15.496;2022-10-22T00:52:18;99249.91;;;10.45;100.00
25722;BME280;13578;53.450;15.496;2022-10-22T00:55:19;99249.75;;;10.47;100.00
25722;BME280;13578;53.450;15.496;2022-10-22T00:58:24;99256.09;;;10.47;100.00
25722;BME280;13578;53.450;15.496;2022-10-22T01:01:30;99254.22;;;10.48;100.00
25722;BME280;13578;53.450;15.496;2022-10-22T01:04:31;99246.00;;;10.48;100.00
25722;BME280;13578;53.450;15.496;2022-10-22T01:07:37;99241.69;;;10.45;100.00
25722;BME280;13578;53.450;15.496;2022-10-22T01:10:58;99231.97;;;10.51;100.00
25722;BME280;13578;53.450;15.496;2022-10-22T01:14:24;99229.09;;;10.53;100.00
25722;BME280;13578;53.450;15.496;2022-10-22T01:17:46;99231.50;;;10.56;100.00
25722;BME280;13578;53.450;15.496;2022-10-22T01:24:17;99238.56;;;10.58;100.00
25722;BME280;13578;53.450;15.496;2022-10-22T01:30:38;99234.13;;;10.57;100.00
25722;BME280;13578;53.450;15.496;2022-10-22T01:33:40;99237.56;;;10.59;100.00
25722;BME280;13578;53.450;15.496;2022-10-22T01:36:42;99225.56;;;10.60;100.00
25722;BME280;13578;53.450;15.496;2022-10-22T01:39:45;99236.25;;;10.63;100.00
25722;BME280;13578;53.450;15.496;2022-10-22T01:42:56;99224.75;;;10.78;100.00
25722;BME280;13578;53.450;15.496;2022-10-22T01:45:59;99225.72;;;10.87;100.00
25722;BME280;13578;53.450;15.496;2022-10-22T01:49:26;99234.19;;;10.93;100.00
25722;BME280;13578;53.450;15.496;2022-10-22T01:55:47;99214.34;;;11.00;100.00
25722;BME280;13578;53.450;15.496;2022-10-22T02:05:26;99229.38;;;11.41;100.00
25722;BME280;13578;53.450;15.496;2022-10-22T02:08:30;99204.78;;;11.40;100.00
25722;BME280;13578;53.450;15.496;2022-10-22T02:11:32;99204.78;;;11.40;100.00
25722;BME280;13578;53.450;15.496;2022-10-22T02:14:36;99204.78;;;11.40;100.00
25722;BME280;13578;53.450;15.496;2022-10-22T02:17:38;99204.78;;;11.40;100.00
25722;BME280;13578;53.450;15.496;2022-10-22T02:20:41;99204.78;;;11.40;100.00
25722;BME280;13578;53.450;15.496;2022-10-22T02:23:42;99204.78;;;11.40;100.00
25722;BME280;13578;53.450;15.496;2022-10-22T02:30:10;99255.72;;;11.52;100.00
25722;BME280;13578;53.450;15.496;2022-10-22T02:33:23;99253.19;;;11.41;100.00
25722;BME280;13578;53.450;15.496;2022-10-22T02:36:25;99253.19;;;11.41;100.00
25722;BME280;13578;53.450;15.496;2022-10-22T02:39:27;99253.19;;;11.41;100.00
25722;BME280;13578;53.450;15.496;2022-10-22T02:42:29;99253.19;;;11.41;100.00
25722;BME280;13578;53.450;15.496;2022-10-22T02:45:30;99253.19;;;11.41;100.00
25722;BME280;13578;53.450;15.496;2022-10-22T02:48:30;99253.19;;;11.41;100.00
25722;BME280;13578;53.450;15.496;2022-10-22T02:51:31;99253.19;;;11.41;100.00
25722;BME280;13578;53.450;15.496;2022-10-22T02:54:32;61865.25;;;-148.94;100.00
25722;BME280;13578;53.450;15.496;2022-10-22T02:57:32;61865.25;;;-148.94;100.00
25722;BME280;13578;53.450;15.496;2022-10-22T03:00:33;61865.25;;;-148.94;100.00
25722;BME280;13578;53.450;15.496;2022-10-22T03:03:34;61865.25;;;-148.94;100.00
25722;BME280;13578;53.450;15.496;2022-10-22T03:06:34;61865.25;;;-148.94;100.00
25722;BME280;13578;53.450;15.496;2022-10-22T03:09:35;61865.25;;;-148.94;100.00
25722;BME280;13578;53.450;15.496;2022-10-22T03:12:36;61865.25;;;-148.94;100.00
25722;BME280;13578;53.450;15.496;2022-10-22T03:15:36;61865.25;;;-148.94;100.00
25722;BME280;13578;53.450;15.496;2022-10-22T03:18:37;61865.25;;;-148.94;100.00
25722;BME280;13578;53.450;15.496;2022-10-22T03:21:43;61865.25;;;-148.94;100.00
25722;BME280;13578;53.450;15.496;2022-10-22T03:24:47;61865.25;;;-148.94;100.00
25722;BME280;13578;53.450;15.496;2022-10-22T03:27:49;61865.25;;;-148.94;100.00
25722;BME280;13578;53.450;15.496;2022-10-22T03:30:51;61865.25;;;-148.94;100.00
25722;BME280;13578;53.450;15.496;2022-10-22T03:33:52;61865.25;;;-148.94;100.00
25722;BME280;13578;53.450;15.496;2022-10-22T03:36:54;61865.25;;;-148.94;100.00
25722;BME280;13578;53.450;15.496;2022-10-22T03:39:56;61865.25;;;-148.94;100.00
25722;BME280;13578;53.450;15.496;2022-10-22T03:42:57;61865.25;;;-148.94;100.00
25722;BME280;13578;53.450;15.496;2022-10-22T03:45:58;61865.25;;;-148.94;100.00
25722;BME280;13578;53.450;15.496;2022-10-22T03:48:59;61865.25;;;-148.94;100.00
25722;BME280;13578;53.450;15.496;2022-10-22T03:52:10;61865.25;;;-148.94;100.00
25722;BME280;13578;53.450;15.496;2022-10-22T03:55:11;61865.25;;;-148.94;100.00
25722;BME280;13578;53.450;15.496;2022-10-22T03:58:11;61865.25;;;-148.94;100.00
25722;BME280;13578;53.450;15.496;2022-10-22T04:01:12;61865.25;;;-148.94;100.00
25722;BME280;13578;53.450;15.496;2022-10-22T04:04:13;61865.25;;;-148.94;100.00
25722;BME280;13578;53.450;15.496;2022-10-22T04:07:14;61865.25;;;-148.94;100.00
25722;BME280;13578;53.450;15.496;2022-10-22T04:10:15;61865.25;;;-148.94;100.00
25722;BME280;13578;53.450;15.496;2022-10-22T04:13:15;61865.25;;;-148.94;100.00
25722;BME280;13578;53.450;15.496;2022-10-22T04:16:18;61865.25;;;-148.94;100.00
25722;BME280;13578;53.450;15.496;2022-10-22T04:19:19;61865.25;;;-148.94;100.00
25722;BME280;13578;53.450;15.496;2022-10-22T04:22:19;61865.25;;;-148.94;100.00
25722;BME280;13578;53.450;15.496;2022-10-22T04:25:20;61865.25;;;-148.94;100.00
25722;BME280;13578;53.450;15.496;2022-10-22T04:28:21;61865.25;;;-148.94;100.00
25722;BME280;13578;53.450;15.496;2022-10-22T04:31:24;61865.25;;;-148.94;100.00
25722;BME280;13578;53.450;15.496;2022-10-22T04:34:28;61865.25;;;-148.94;100.00
25722;BME280;13578;53.450;15.496;2022-10-22T04:37:29;61865.25;;;-148.94;100.00
25722;BME280;13578;53.450;15.496;2022-10-22T04:40:29;61865.25;;;-148.94;100.00
25722;BME280;13578;53.450;15.496;2022-10-22T04:43:30;61865.25;;;-148.94;100.00
25722;BME280;13578;53.450;15.496;2022-10-22T04:46:33;61865.25;;;-148.94;100.00
25722;BME280;13578;53.450;15.496;2022-10-22T04:49:33;61865.25;;;-148.94;100.00
25722;BME280;13578;53.450;15.496;2022-10-22T04:52:34;61865.25;;;-148.94;100.00
25722;BME280;13578;53.450;15.496;2022-10-22T04:55:35;61865.25;;;-148.94;100.00
25722;BME280;13578;53.450;15.496;2022-10-22T04:58:36;61865.25;;;-148.94;100.00
25722;BME280;13578;53.450;15.496;2022-10-22T05:01:39;61865.25;;;-148.94;100.00
25722;BME280;13578;53.450;15.496;2022-10-22T05:04:43;61865.25;;;-148.94;100.00
25722;BME280;13578;53.450;15.496;2022-10-22T05:07:43;61865.25;;;-148.94;100.00
25722;BME280;13578;53.450;15.496;2022-10-22T05:10:44;61865.25;;;-148.94;100.00
25722;BME280;13578;53.450;15.496;2022-10-22T05:13:45;61865.25;;;-148.94;100.00
25722;BME280;13578;53.450;15.496;2022-10-22T05:16:46;61865.25;;;-148.94;100.00
25722;BME280;13578;53.450;15.496;2022-10-22T05:19:47;61865.25;;;-148.94;100.00
25722;BME280;13578;53.450;15.496;2022-10-22T05:22:47;61865.25;;;-148.94;100.00
25722;BME280;13578;53.450;15.496;2022-10-22T05:25:48;61865.25;;;-148.94;100.00
25722;BME280;13578;53.450;15.496;2022-10-22T05:28:50;61865.25;;;-148.94;100.00
25722;BME280;13578;53.450;15.496;2022-10-22T05:31:51;61865.25;;;-148.94;100.00
25722;BME280;13578;53.450;15.496;2022-10-22T05:34:52;61865.25;;;-148.94;100.00
25722;BME280;13578;53.450;15.496;2022-10-22T05:37:53;61865.25;;;-148.94;100.00
25722;BME280;13578;53.450;15.496;2022-10-22T05:41:08;61865.25;;;-148.94;100.00
25722;BME280;13578;53.450;15.496;2022-10-22T05:44:10;61865.25;;;-148.94;100.00
25722;BME280;13578;53.450;15.496;2022-10-22T05:47:11;61865.25;;;-148.94;100.00
25722;BME280;13578;53.450;15.496;2022-10-22T05:50:12;61865.25;;;-148.94;100.00
25722;BME280;13578;53.450;15.496;2022-10-22T05:53:12;61865.25;;;-148.94;100.00
25722;BME280;13578;53.450;15.496;2022-10-22T05:56:15;61865.25;;;-148.94;100.00
25722;BME280;13578;53.450;15.496;2022-10-22T05:59:16;61865.25;;;-148.94;100.00
25722;BME280;13578;53.450;15.496;2022-10-22T06:02:16;61865.25;;;-148.94;100.00
25722;BME280;13578;53.450;15.496;2022-10-22T06:05:17;61865.25;;;-148.94;100.00
25722;BME280;13578;53.450;15.496;2022-10-22T06:08:18;61865.25;;;-148.94;100.00
25722;BME280;13578;53.450;15.496;2022-10-22T06:11:20;61865.25;;;-148.94;100.00
25722;BME280;13578;53.450;15.496;2022-10-22T06:14:21;61865.25;;;-148.94;100.00
25722;BME280;13578;53.450;15.496;2022-10-22T06:17:21;61865.25;;;-148.94;100.00
25722;BME280;13578;53.450;15.496;2022-10-22T06:20:22;61865.25;;;-148.94;100.00
25722;BME280;13578;53.450;15.496;2022-10-22T06:23:23;61865.25;;;-148.94;100.00
25722;BME280;13578;53.450;15.496;2022-10-22T06:26:23;61865.25;;;-148.94;100.00
25722;BME280;13578;53.450;15.496;2022-10-22T06:29:24;61865.25;;;-148.94;100.00
25722;BME280;13578;53.450;15.496;2022-10-22T06:32:25;61865.25;;;-148.94;100.00
25722;BME280;13578;53.450;15.496;2022-10-22T06:35:25;61865.25;;;-148.94;100.00
25722;BME280;13578;53.450;15.496;2022-10-22T06:38:26;61865.25;;;-148.94;100.00
25722;BME280;13578;53.450;15.496;2022-10-22T06:41:26;61865.25;;;-148.94;100.00
25722;BME280;13578;53.450;15.496;2022-10-22T06:44:28;61865.25;;;-148.94;100.00
25722;BME280;13578;53.450;15.496;2022-10-22T06:47:29;61865.25;;;-148.94;100.00
25722;BME280;13578;53.450;15.496;2022-10-22T06:50:33;61865.25;;;-148.94;100.00
25722;BME280;13578;53.450;15.496;2022-10-22T06:53:35;61865.25;;;-148.94;100.00
25722;BME280;13578;53.450;15.496;2022-10-22T06:56:36;61865.25;;;-148.94;100.00
25722;BME280;13578;53.450;15.496;2022-10-22T06:59:37;61865.25;;;-148.94;100.00
25722;BME280;13578;53.450;15.496;2022-10-22T07:02:38;61865.25;;;-148.94;100.00
25722;BME280;13578;53.450;15.496;2022-10-22T07:05:39;61865.25;;;-148.94;100.00
25722;BME280;13578;53.450;15.496;2022-10-22T07:08:40;61865.25;;;-148.94;100.00
25722;BME280;13578;53.450;15.496;2022-10-22T07:11:43;61865.25;;;-148.94;100.00
25722;BME280;13578;53.450;15.496;2022-10-22T07:14:44;61865.25;;;-148.94;100.00
25722;BME280;13578;53.450;15.496;2022-10-22T07:17:45;61865.25;;;-148.94;100.00
25722;BME280;13578;53.450;15.496;2022-10-22T07:20:47;61865.25;;;-148.94;100.00
25722;BME280;13578;53.450;15.496;2022-10-22T07:23:47;61865.25;;;-148.94;100.00
25722;BME280;13578;53.450;15.496;2022-10-22T07:26:48;61865.25;;;-148.94;100.00
25722;BME280;13578;53.450;15.496;2022-10-22T07:29:49;61865.25;;;-148.94;100.00
25722;BME280;13578;53.450;15.496;2022-10-22T07:32:49;61865.25;;;-148.94;100.00
25722;BME280;13578;53.450;15.496;2022-10-22T07:35:55;61865.25;;;-148.94;100.00
25722;BME280;13578;53.450;15.496;2022-10-22T07:38:57;61865.25;;;-148.94;100.00
25722;BME280;13578;53.450;15.496;2022-10-22T07:41:58;61865.25;;;-148.94;100.00
25722;BME280;13578;53.450;15.496;2022-10-22T07:44:59;61865.25;;;-148.94;100.00
25722;BME280;13578;53.450;15.496;2022-10-22T07:47:59;61865.25;;;-148.94;100.00
25722;BME280;13578;53.450;15.496;2022-10-22T07:51:01;61865.25;;;-148.94;100.00
25722;BME280;13578;53.450;15.496;2022-10-22T07:54:02;61865.25;;;-148.94;100.00
25722;BME280;13578;53.450;15.496;2022-10-22T07:57:03;61865.25;;;-148.94;100.00
25722;BME280;13578;53.450;15.496;2022-10-22T08:00:06;61865.25;;;-148.94;100.00
25722;BME280;13578;53.450;15.496;2022-10-22T08:03:09;61865.25;;;-148.94;100.00
25722;BME280;13578;53.450;15.496;2022-10-22T08:06:12;61865.25;;;-148.94;100.00
25722;BME280;13578;53.450;15.496;2022-10-22T08:09:13;61865.25;;;-148.94;100.00
25722;BME280;13578;53.450;15.496;2022-10-22T08:12:14;61865.25;;;-148.94;100.00
25722;BME280;13578;53.450;15.496;2022-10-22T08:15:14;61865.25;;;-148.94;100.00
25722;BME280;13578;53.450;15.496;2022-10-22T08:18:15;61865.25;;;-148.94;100.00
25722;BME280;13578;53.450;15.496;2022-10-22T08:21:16;61865.25;;;-148.94;100.00
25722;BME280;13578;53.450;15.496;2022-10-22T08:24:17;61865.25;;;-148.94;100.00
25722;BME280;13578;53.450;15.496;2022-10-22T08:27:17;61865.25;;;-148.94;100.00
25722;BME280;13578;53.450;15.496;2022-10-22T08:30:18;61865.25;;;-148.94;100.00
25722;BME280;13578;53.450;15.496;2022-10-22T08:33:19;61865.25;;;-148.94;100.00
25722;BME280;13578;53.450;15.496;2022-10-22T08:36:20;61865.25;;;-148.94;100.00
25722;BME280;13578;53.450;15.496;2022-10-22T08:39:20;61865.25;;;-148.94;100.00
25722;BME280;13578;53.450;15.496;2022-10-22T08:49:26;61865.25;;;-148.94;100.00
25722;BME280;13578;53.450;15.496;2022-10-22T08:52:28;61865.25;;;-148.94;100.00
25722;BME280;13578;53.450;15.496;2022-10-22T08:55:32;61865.25;;;-148.94;100.00
25722;BME280;13578;53.450;15.496;2022-10-22T09:01:48;61865.25;;;-148.94;100.00
25722;BME280;13578;53.450;15.496;2022-10-22T09:05:01;61865.25;;;-148.94;100.00
25722;BME280;13578;53.450;15.496;2022-10-22T09:08:10;61865.25;;;-148.94;100.00
25722;BME280;13578;53.450;15.496;2022-10-22T09:14:16;61865.25;;;-148.94;100.00
25722;BME280;13578;53.450;15.496;2022-10-22T09:17:44;61865.25;;;-148.94;100.00
25722;BME280;13578;53.450;15.496;2022-10-22T09:20:53;61865.25;;;-148.94;100.00
25722;BME280;13578;53.450;15.496;2022-10-22T09:24:08;61865.25;;;-148.94;100.00
25722;BME280;13578;53.450;15.496;2022-10-22T09:27:25;61865.25;;;-148.94;100.00
25722;BME280;13578;53.450;15.496;2022-10-22T09:30:29;61865.25;;;-148.94;100.00
25722;BME280;13578;53.450;15.496;2022-10-22T09:33:30;61865.25;;;-148.94;100.00
25722;BME280;13578;53.450;15.496;2022-10-22T09:36:32;61865.25;;;-148.94;100.00
25722;BME280;13578;53.450;15.496;2022-10-22T09:39:38;61865.25;;;-148.94;100.00
25722;BME280;13578;53.450;15.496;2022-10-22T09:42:39;61865.25;;;-148.94;100.00
25722;BME280;13578;53.450;15.496;2022-10-22T09:45:41;61865.25;;;-148.94;100.00
25722;BME280;13578;53.450;15.496;2022-10-22T09:48:49;61865.25;;;-148.94;100.00
25722;BME280;13578;53.450;15.496;2022-10-22T09:51:56;61865.25;;;-148.94;100.00
25722;BME280;13578;53.450;15.496;2022-10-22T09:55:01;61865.25;;;-148.94;100.00
25722;BME280;13578;53.450;15.496;2022-10-22T09:58:01;61865.25;;;-148.94;100.00
25722;BME280;13578;53.450;15.496;2022-10-22T10:01:02;61865.25;;;-148.94;100.00
25722;BME280;13578;53.450;15.496;2022-10-22T10:04:05;61865.25;;;-148.94;100.00
25722;BME280;13578;53.450;15.496;2022-10-22T10:07:18;61865.25;;;-148.94;100.00
25722;BME280;13578;53.450;15.496;2022-10-22T10:10:47;61865.25;;;-148.94;100.00
25722;BME280;13578;53.450;15.496;2022-10-22T10:13:52;61865.25;;;-148.94;100.00
25722;BME280;13578;53.450;15.496;2022-10-22T10:20:48;61865.25;;;-148.94;100.00
25722;BME280;13578;53.450;15.496;2022-10-22T10:24:04;61865.25;;;-148.94;100.00
25722;BME280;13578;53.450;15.496;2022-10-22T10:27:14;61865.25;;;-148.94;100.00
25722;BME280;13578;53.450;15.496;2022-10-22T10:30:23;61865.25;;;-148.94;100.00
25722;BME280;13578;53.450;15.496;2022-10-22T10:36:41;61865.25;;;-148.94;100.00
25722;BME280;13578;53.450;15.496;2022-10-22T10:46:34;61865.25;;;-148.94;100.00
25722;BME280;13578;53.450;15.496;2022-10-22T10:49:45;61865.25;;;-148.94;100.00
25722;BME280;13578;53.450;15.496;2022-10-22T10:53:01;61865.25;;;-148.94;100.00
25722;BME280;13578;53.450;15.496;2022-10-22T10:59:43;61865.25;;;-148.94;100.00
25722;BME280;13578;53.450;15.496;2022-10-22T11:06:09;61865.25;;;-148.94;100.00
25722;BME280;13578;53.450;15.496;2022-10-22T11:09:24;61865.25;;;-148.94;100.00
25722;BME280;13578;53.450;15.496;2022-10-22T11:12:37;61865.25;;;-148.94;100.00
25722;BME280;13578;53.450;15.496;2022-10-22T11:15:40;61865.25;;;-148.94;100.00
25722;BME280;13578;53.450;15.496;2022-10-22T11:19:00;61865.25;;;-148.94;100.00
25722;BME280;13578;53.450;15.496;2022-10-22T11:22:10;61865.25;;;-148.94;100.00
25722;BME280;13578;53.450;15.496;2022-10-22T11:25:27;61865.25;;;-148.94;100.00
25722;BME280;13578;53.450;15.496;2022-10-22T11:28:38;61865.25;;;-148.94;100.00
25722;BME280;13578;53.450;15.496;2022-10-22T11:31:40;61865.25;;;-148.94;100.00
25722;BME280;13578;53.450;15.496;2022-10-22T11:34:49;61865.25;;;-148.94;100.00
25722;BME280;13578;53.450;15.496;2022-10-22T11:37:53;61865.25;;;-148.94;100.00
25722;BME280;13578;53.450;15.496;2022-10-22T11:40:57;61865.25;;;-148.94;100.00
25722;BME280;13578;53.450;15.496;2022-10-22T11:44:20;61865.25;;;-148.94;100.00
25722;BME280;13578;53.450;15.496;2022-10-22T11:50:56;61865.25;;;-148.94;100.00
25722;BME280;13578;53.450;15.496;2022-10-22T11:54:01;61865.25;;;-148.94;100.00
25722;BME280;13578;53.450;15.496;2022-10-22T11:57:18;61865.25;;;-148.94;100.00
25722;BME280;13578;53.450;15.496;2022-10-22T12:00:38;61865.25;;;-148.94;100.00
25722;BME280;13578;53.450;15.496;2022-10-22T12:03:42;61865.25;;;-148.94;100.00
25722;BME280;13578;53.450;15.496;2022-10-22T12:06:58;61865.25;;;-148.94;100.00
25722;BME280;13578;53.450;15.496;2022-10-22T12:09:59;61865.25;;;-148.94;100.00
25722;BME280;13578;53.450;15.496;2022-10-22T12:13:12;61865.25;;;-148.94;100.00
25722;BME280;13578;53.450;15.496;2022-10-22T12:16:16;61865.25;;;-148.94;100.00
25722;BME280;13578;53.450;15.496;2022-10-22T12:19:36;61865.25;;;-148.94;100.00
25722;BME280;13578;53.450;15.496;2022-10-22T12:22:37;61865.25;;;-148.94;100.00
25722;BME280;13578;53.450;15.496;2022-10-22T12:25:38;61865.25;;;-148.94;100.00
25722;BME280;13578;53.450;15.496;2022-10-22T12:28:39;61865.25;;;-148.94;100.00
25722;BME280;13578;53.450;15.496;2022-10-22T12:31:41;61865.25;;;-148.94;100.00
25722;BME280;13578;53.450;15.496;2022-10-22T12:34:51;61865.25;;;-148.94;100.00
25722;BME280;13578;53.450;15.496;2022-10-22T12:37:57;61865.25;;;-148.94;100.00
25722;BME280;13578;53.450;15.496;2022-10-22T12:40:57;61865.25;;;-148.94;100.00
25722;BME280;13578;53.450;15.496;2022-10-22T12:43:59;61865.25;;;-148.94;100.00
25722;BME280;13578;53.450;15.496;2022-10-22T12:47:00;61865.25;;;-148.94;100.00
25722;BME280;13578;53.450;15.496;2022-10-22T12:50:02;61865.25;;;-148.94;100.00
25722;BME280;13578;53.450;15.496;2022-10-22T12:53:20;61865.25;;;-148.94;100.00
25722;BME280;13578;53.450;15.496;2022-10-22T12:56:25;61865.25;;;-148.94;100.00
25722;BME280;13578;53.450;15.496;2022-10-22T12:59:32;61865.25;;;-148.94;100.00
25722;BME280;13578;53.450;15.496;2022-10-22T13:02:34;61865.25;;;-148.94;100.00
25722;BME280;13578;53.450;15.496;2022-10-22T13:05:35;61865.25;;;-148.94;100.00
25722;BME280;13578;53.450;15.496;2022-10-22T13:08:39;61865.25;;;-148.94;100.00
25722;BME280;13578;53.450;15.496;2022-10-22T13:11:53;61865.25;;;-148.94;100.00
25722;BME280;13578;53.450;15.496;2022-10-22T13:16:22;99482.09;;;13.83;100.00
25722;BME280;13578;53.450;15.496;2022-10-22T13:19:38;99482.09;;;13.83;100.00
25722;BME280;13578;53.450;15.496;2022-10-22T13:22:41;99482.09;;;13.83;100.00
25722;BME280;13578;53.450;15.496;2022-10-22T13:26:17;99482.09;;;13.83;100.00
25722;BME280;13578;53.450;15.496;2022-10-22T13:29:20;99482.09;;;13.83;100.00
25722;BME280;13578;53.450;15.496;2022-10-22T13:32:40;61865.25;;;-148.94;100.00
25722;BME280;13578;53.450;15.496;2022-10-22T13:35:41;61865.25;;;-148.94;100.00
25722;BME280;13578;53.450;15.496;2022-10-22T13:38:43;61865.25;;;-148.94;100.00
25722;BME280;13578;53.450;15.496;2022-10-22T13:41:44;61865.25;;;-148.94;100.00
25722;BME280;13578;53.450;15.496;2022-10-22T13:44:44;61865.25;;;-148.94;100.00
25722;BME280;13578;53.450;15.496;2022-10-22T13:47:49;61865.25;;;-148.94;100.00
25722;BME280;13578;53.450;15.496;2022-10-22T13:50:51;61865.25;;;-148.94;100.00
25722;BME280;13578;53.450;15.496;2022-10-22T13:53:53;61865.25;;;-148.94;100.00
25722;BME280;13578;53.450;15.496;2022-10-22T13:56:53;61865.25;;;-148.94;100.00
25722;BME280;13578;53.450;15.496;2022-10-22T13:59:54;61865.25;;;-148.94;100.00
25722;BME280;13578;53.450;15.496;2022-10-22T14:02:57;61865.25;;;-148.94;100.00
25722;BME280;13578;53.450;15.496;2022-10-22T14:05:59;61865.25;;;-148.94;100.00
25722;BME280;13578;53.450;15.496;2022-10-22T14:09:06;61865.25;;;-148.94;100.00
25722;BME280;13578;53.450;15.496;2022-10-22T14:12:15;61865.25;;;-148.94;100.00
25722;BME280;13578;53.450;15.496;2022-10-22T14:15:16;61865.25;;;-148.94;100.00
25722;BME280;13578;53.450;15.496;2022-10-22T14:18:27;61865.25;;;-148.94;100.00
25722;BME280;13578;53.450;15.496;2022-10-22T14:21:34;61865.25;;;-148.94;100.00
25722;BME280;13578;53.450;15.496;2022-10-22T14:24:35;61865.25;;;-148.94;100.00
25722;BME280;13578;53.450;15.496;2022-10-22T14:27:36;61865.25;;;-148.94;100.00
25722;BME280;13578;53.450;15.496;2022-10-22T14:30:38;61865.25;;;-148.94;100.00
25722;BME280;13578;53.450;15.496;2022-10-22T14:33:39;61865.25;;;-148.94;100.00
25722;BME280;13578;53.450;15.496;2022-10-22T14:36:41;61865.25;;;-148.94;100.00
25722;BME280;13578;53.450;15.496;2022-10-22T14:39:45;61865.25;;;-148.94;100.00
25722;BME280;13578;53.450;15.496;2022-10-22T14:42:51;61865.25;;;-148.94;100.00
25722;BME280;13578;53.450;15.496;2022-10-22T14:45:51;61865.25;;;-148.94;100.00
25722;BME280;13578;53.450;15.496;2022-10-22T14:48:52;61865.25;;;-148.94;100.00
25722;BME280;13578;53.450;15.496;2022-10-22T14:51:53;61865.25;;;-148.94;100.00
25722;BME280;13578;53.450;15.496;2022-10-22T14:54:53;61865.25;;;-148.94;100.00
25722;BME280;13578;53.450;15.496;2022-10-22T14:57:54;61865.25;;;-148.94;100.00
25722;BME280;13578;53.450;15.496;2022-10-22T15:00:55;61865.25;;;-148.94;100.00
25722;BME280;13578;53.450;15.496;2022-10-22T15:03:55;61865.25;;;-148.94;100.00
25722;BME280;13578;53.450;15.496;2022-10-22T15:06:56;61865.25;;;-148.94;100.00
25722;BME280;13578;53.450;15.496;2022-10-22T15:09:58;61865.25;;;-148.94;100.00
25722;BME280;13578;53.450;15.496;2022-10-22T15:12:59;61865.25;;;-148.94;100.00
25722;BME280;13578;53.450;15.496;2022-10-22T15:23:32;99548.59;;;13.80;nan
25722;BME280;13578;53.450;15.496;2022-10-22T15:26:33;99553.59;;;13.76;nan
25722;BME280;13578;53.450;15.496;2022-10-22T15:29:34;99551.00;;;13.75;nan
25722;BME280;13578;53.450;15.496;2022-10-22T15:32:34;99558.25;;;13.76;nan
25722;BME280;13578;53.450;15.496;2022-10-22T15:50:01;61865.25;;;-148.94;100.00
25722;BME280;13578;53.450;15.496;2022-10-22T15:53:22;61865.25;;;-148.94;100.00
25722;BME280;13578;53.450;15.496;2022-10-22T15:56:46;61865.25;;;-148.94;100.00
25722;BME280;13578;53.450;15.496;2022-10-22T16:00:06;61865.25;;;-148.94;100.00
25722;BME280;13578;53.450;15.496;2022-10-22T16:03:18;61865.25;;;-148.94;100.00
25722;BME280;13578;53.450;15.496;2022-10-22T16:06:36;61865.25;;;-148.94;100.00
25722;BME280;13578;53.450;15.496;2022-10-22T16:09:48;61865.25;;;-148.94;100.00
25722;BME280;13578;53.450;15.496;2022-10-22T16:12:55;61865.25;;;-148.94;100.00
25722;BME280;13578;53.450;15.496;2022-10-22T16:16:05;61865.25;;;-148.94;100.00
25722;BME280;13578;53.450;15.496;2022-10-22T16:19:17;61865.25;;;-148.94;100.00
25722;BME280;13578;53.450;15.496;2022-10-22T16:22:25;48520.00;;;-148.94;49.50
25722;BME280;13578;53.450;15.496;2022-10-22T16:25:37;61865.25;;;-148.94;100.00
25722;BME280;13578;53.450;15.496;2022-10-22T16:28:43;61865.25;;;-148.94;48.12
25722;BME280;13578;53.450;15.496;2022-10-22T16:31:48;61865.25;;;-148.94;0.00
25722;BME280;13578;53.450;15.496;2022-10-22T16:34:50;66820.47;;;20.11;48.12
25722;BME280;13578;53.450;15.496;2022-10-22T16:37:55;61865.25;;;-148.94;38.28
25722;BME280;13578;53.450;15.496;2022-10-22T16:50:17;61865.25;;;20.10;38.28
25722;BME280;13578;53.450;15.496;2022-10-22T16:53:20;61865.25;;;-148.94;0.00
25722;BME280;13578;53.450;15.496;2022-10-22T16:56:24;61865.25;;;-148.94;37.47
25722;BME280;13578;53.450;15.496;2022-10-22T16:59:28;61865.25;;;-148.94;46.78
25722;BME280;13578;53.450;15.496;2022-10-22T17:11:37;67034.00;;;20.10;46.80